createdAt,value
2023-04-13T00:01:20.134Z,8.70
2023-04-13T00:03:49.175Z,8.70
2023-04-13T00:06:19.449Z,8.70
2023-04-13T00:08:46.083Z,8.70
2023-04-13T00:11:12.971Z,8.70
2023-04-13T00:13:46.948Z,8.70
2023-04-13T00:16:17.877Z,8.80
2023-04-13T00:18:46.640Z,8.70
2023-04-13T00:21:19.286Z,8.70
2023-04-13T00:23:48.316Z,8.70
2023-04-13T00:26:21.247Z,8.60
2023-04-13T00:28:50.682Z,8.60
2023-04-13T00:31:22.558Z,8.70
2023-04-13T00:33:57.466Z,8.60
2023-04-13T00:36:27.767Z,8.60
2023-04-13T00:39:01.598Z,8.60
2023-04-13T00:41:28.441Z,8.60
2023-04-13T00:43:55.271Z,8.60
2023-04-13T00:46:22.134Z,8.50
2023-04-13T00:49:01.012Z,8.60
2023-04-13T00:51:30.042Z,8.50
2023-04-13T00:53:58.484Z,8.60
2023-04-13T00:56:30.252Z,8.70
2023-04-13T00:58:57.215Z,8.60
2023-04-13T01:01:25.329Z,8.70
2023-04-13T01:03:53.115Z,8.60
2023-04-13T01:06:49.442Z,8.60
2023-04-13T01:09:22.037Z,8.60
2023-04-13T01:12:22.326Z,8.50
2023-04-13T01:15:16.182Z,8.50
2023-04-13T01:17:53.647Z,8.40
2023-04-13T01:20:30.922Z,8.40
2023-04-13T01:23:24.663Z,8.30
2023-04-13T01:26:00.817Z,8.30
2023-04-13T01:28:28.276Z,8.30
2023-04-13T01:30:57.959Z,8.30
2023-04-13T01:33:29.586Z,8.30
2023-04-13T01:36:05.229Z,8.30
2023-04-13T01:38:32.071Z,8.30
2023-04-13T01:41:00.672Z,8.30
2023-04-13T01:43:32.252Z,8.30
2023-04-13T01:46:11.179Z,8.20
2023-04-13T01:48:59.238Z,8.20
2023-04-13T01:51:44.511Z,8.10
2023-04-13T01:54:25.045Z,8.20
2023-04-13T01:56:53.320Z,8.20
2023-04-13T01:59:21.844Z,8.20
2023-04-13T02:01:56.731Z,8.20
2023-04-13T02:04:28.787Z,8.20
2023-04-13T02:06:56.889Z,8.20
2023-04-13T02:09:29.958Z,8.30
2023-04-13T02:11:56.581Z,8.30
2023-04-13T02:14:23.376Z,8.30
2023-04-13T02:16:51.218Z,8.30
2023-04-13T02:19:21.051Z,8.20
2023-04-13T02:21:48.294Z,8.30
2023-04-13T02:24:16.307Z,8.20
2023-04-13T02:26:44.259Z,8.30
2023-04-13T02:29:16.880Z,8.30
2023-04-13T02:31:48.197Z,8.30
2023-04-13T02:34:17.006Z,8.20
2023-04-13T02:36:44.564Z,8.20
2023-04-13T02:39:12.745Z,8.20
2023-04-13T02:41:44.253Z,8.20
2023-04-13T02:44:18.400Z,8.20
2023-04-13T02:46:55.176Z,8.20
2023-04-13T02:49:27.195Z,8.20
2023-04-13T02:52:12.582Z,8.20
2023-04-13T02:54:47.102Z,8.30
2023-04-13T02:57:14.189Z,8.20
2023-04-13T02:59:48.541Z,8.20
2023-04-13T03:02:20.824Z,8.30
2023-04-13T03:04:48.457Z,8.40
2023-04-13T03:07:16.436Z,8.30
2023-04-13T03:09:47.660Z,8.40
2023-04-13T03:12:16.497Z,8.40
2023-04-13T03:14:47.280Z,8.40
2023-04-13T03:17:19.765Z,8.40
2023-04-13T03:19:49.411Z,8.40
2023-04-13T03:22:17.654Z,8.40
2023-04-13T03:24:50.366Z,8.40
2023-04-13T03:27:27.336Z,8.40
2023-04-13T03:29:56.099Z,8.40
2023-04-13T03:32:22.865Z,8.50
2023-04-13T03:34:56.611Z,8.40
2023-04-13T03:37:31.720Z,8.40
2023-04-13T03:40:09.818Z,8.30
2023-04-13T03:42:49.986Z,8.30
2023-04-13T03:45:20.374Z,8.20
2023-04-13T03:47:47.447Z,8.30
2023-04-13T03:50:14.894Z,8.30
2023-04-13T03:53:12.511Z,8.30
2023-04-13T03:55:42.447Z,8.30
2023-04-13T03:58:13.452Z,8.30
2023-04-13T04:00:53.255Z,8.30
2023-04-13T04:03:37.570Z,8.20
2023-04-13T04:06:09.605Z,8.20
2023-04-13T04:08:39.453Z,8.30
2023-04-13T04:11:16.131Z,8.30
2023-04-13T04:13:42.832Z,8.20
2023-04-13T04:16:12.693Z,8.20
2023-04-13T04:18:47.422Z,8.20
2023-04-13T04:21:20.997Z,8.30
2023-04-13T04:23:49.763Z,8.30
2023-04-13T04:26:42.089Z,8.30
2023-04-13T04:29:16.482Z,8.20
2023-04-13T04:31:44.596Z,8.30
2023-04-13T04:34:16.610Z,8.20
2023-04-13T04:36:44.857Z,8.30
2023-04-13T04:39:14.963Z,8.20
2023-04-13T04:41:54.800Z,8.20
2023-04-13T04:44:29.885Z,8.20
2023-04-13T04:46:59.665Z,8.20
2023-04-13T04:49:27.892Z,8.20
2023-04-13T04:51:56.745Z,8.10
2023-04-13T04:54:23.870Z,8.20
2023-04-13T04:56:50.953Z,8.20
2023-04-13T04:59:20.714Z,8.20
2023-04-13T05:01:57.437Z,8.20
2023-04-13T05:04:28.834Z,8.20
2023-04-13T05:06:58.320Z,8.20
2023-04-13T05:09:28.479Z,8.20
2023-04-13T05:11:57.302Z,8.20
2023-04-13T05:14:24.122Z,8.20
2023-04-13T05:16:51.217Z,8.20
2023-04-13T05:19:35.457Z,8.20
2023-04-13T05:22:32.549Z,8.20
2023-04-13T05:25:07.433Z,8.20
2023-04-13T05:27:35.014Z,8.30
2023-04-13T05:30:02.912Z,8.20
2023-04-13T05:32:33.850Z,8.20
2023-04-13T05:35:01.689Z,8.20
2023-04-13T05:37:30.561Z,8.20
2023-04-13T05:39:57.890Z,8.20
2023-04-13T05:42:31.041Z,8.30
2023-04-13T05:45:01.796Z,8.30
2023-04-13T05:47:33.411Z,8.20
2023-04-13T05:50:12.163Z,8.20
2023-04-13T05:52:40.434Z,8.20
2023-04-13T05:55:33.130Z,8.30
2023-04-13T05:58:05.157Z,8.30
2023-04-13T06:00:34.039Z,8.30
2023-04-13T06:03:12.884Z,8.30
2023-04-13T06:05:39.706Z,8.30
2023-04-13T06:08:09.775Z,8.30
2023-04-13T06:10:43.696Z,8.30
2023-04-13T06:13:10.503Z,8.30
2023-04-13T06:15:41.620Z,8.30
2023-04-13T06:18:08.344Z,8.40
2023-04-13T06:20:35.267Z,8.40
2023-04-13T06:23:05.989Z,8.40
2023-04-13T06:25:34.546Z,8.40
2023-04-13T06:28:06.647Z,8.40
2023-04-13T06:30:39.976Z,8.50
2023-04-13T06:33:14.560Z,8.50
2023-04-13T06:35:42.665Z,8.50
2023-04-13T06:38:12.743Z,8.50
2023-04-13T06:40:51.731Z,8.50
2023-04-13T06:43:29.255Z,8.50
2023-04-13T06:46:15.107Z,8.60
2023-04-13T06:48:47.460Z,8.60
2023-04-13T06:51:16.235Z,8.60
2023-04-13T06:53:46.828Z,8.70
2023-04-13T06:56:13.711Z,8.80
2023-04-13T06:58:42.304Z,8.80
2023-04-13T07:01:12.791Z,8.90
2023-04-13T07:03:44.272Z,9.00
2023-04-13T07:06:37.786Z,9.00
2023-04-13T07:09:04.657Z,9.10
2023-04-13T07:11:32.448Z,9.10
2023-04-13T07:14:01.070Z,9.10
2023-04-13T07:16:29.863Z,9.10
2023-04-13T07:19:00.226Z,9.10
2023-04-13T07:21:32.422Z,9.10
2023-04-13T07:24:02.034Z,9.20
2023-04-13T07:26:31.286Z,9.20
2023-04-13T07:29:03.769Z,9.20
2023-04-13T07:31:37.826Z,9.30
2023-04-13T07:34:06.378Z,9.30
2023-04-13T07:36:41.299Z,9.30
2023-04-13T07:39:11.815Z,9.30
2023-04-13T07:41:46.685Z,9.30
2023-04-13T07:44:18.007Z,9.40
2023-04-13T07:46:47.613Z,9.50
2023-04-13T07:49:22.239Z,9.60
2023-04-13T07:51:51.833Z,9.60
2023-04-13T07:54:21.082Z,9.80
2023-04-13T07:56:48.964Z,9.80
2023-04-13T07:59:20.362Z,9.80
2023-04-13T08:01:49.270Z,10.00
2023-04-13T08:04:19.504Z,10.10
2023-04-13T08:06:51.951Z,10.20
2023-04-13T08:09:27.474Z,10.40
2023-04-13T08:11:58.179Z,10.40
2023-04-13T08:14:52.565Z,10.30
2023-04-13T08:17:19.456Z,10.10
2023-04-13T08:19:46.453Z,10.10
2023-04-13T08:22:20.017Z,10.10
2023-04-13T08:24:46.671Z,10.10
2023-04-13T08:27:39.014Z,10.10
2023-04-13T08:30:09.499Z,10.10
2023-04-13T08:32:48.336Z,10.10
2023-04-13T08:35:15.789Z,10.20
2023-04-13T08:37:45.557Z,10.20
2023-04-13T08:40:12.821Z,10.20
2023-04-13T08:42:44.197Z,10.40
2023-04-13T08:45:15.274Z,10.20
2023-04-13T08:47:46.832Z,10.10
2023-04-13T08:50:16.234Z,10.20
2023-04-13T08:52:47.310Z,10.20
2023-04-13T08:55:21.844Z,10.40
2023-04-13T08:57:54.900Z,10.50
2023-04-13T09:00:23.868Z,10.60
2023-04-13T09:03:05.356Z,10.70
2023-04-13T09:05:43.269Z,10.90
2023-04-13T09:08:14.040Z,11.00
2023-04-13T09:10:45.113Z,11.30
2023-04-13T09:13:14.330Z,11.60
2023-04-13T09:15:46.452Z,11.80
2023-04-13T09:18:54.980Z,12.10
2023-04-13T09:21:31.353Z,12.20
2023-04-13T09:23:58.977Z,12.20
2023-04-13T09:26:27.100Z,12.30
2023-04-13T09:28:58.929Z,12.00
2023-04-13T09:31:32.092Z,11.90
2023-04-13T09:34:01.234Z,11.60
2023-04-13T09:36:28.706Z,11.40
2023-04-13T09:39:00.146Z,11.10
2023-04-13T09:41:31.882Z,10.90
2023-04-13T09:44:17.090Z,10.80
2023-04-13T09:47:03.146Z,10.70
2023-04-13T09:49:37.977Z,10.90
2023-04-13T09:52:25.235Z,11.10
2023-04-13T09:54:57.066Z,11.20
2023-04-13T09:57:28.223Z,11.30
2023-04-13T09:59:59.019Z,11.00
2023-04-13T10:02:29.295Z,10.90
2023-04-13T10:04:59.402Z,10.50
2023-04-13T10:07:36.394Z,10.50
2023-04-13T10:10:07.999Z,10.70
2023-04-13T10:12:38.346Z,10.90
2023-04-13T10:15:30.937Z,11.00
2023-04-13T10:18:07.330Z,11.40
2023-04-13T10:20:34.763Z,11.70
2023-04-13T10:23:05.114Z,12.00
2023-04-13T10:25:39.167Z,11.90
2023-04-13T10:28:12.519Z,11.90
2023-04-13T10:30:47.936Z,12.20
2023-04-13T10:33:20.060Z,12.30
2023-04-13T10:35:56.502Z,12.30
2023-04-13T10:38:24.161Z,12.60
2023-04-13T10:40:54.689Z,12.90
2023-04-13T10:43:29.266Z,13.30
2023-04-13T10:46:10.413Z,13.20
2023-04-13T10:48:37.262Z,13.40
2023-04-13T10:51:07.073Z,13.40
2023-04-13T10:53:34.464Z,12.70
2023-04-13T10:56:01.646Z,12.30
2023-04-13T10:58:33.024Z,12.10
2023-04-13T11:01:00.377Z,12.00
2023-04-13T11:03:32.616Z,12.00
2023-04-13T11:06:01.629Z,11.90
2023-04-13T11:08:33.035Z,12.00
2023-04-13T11:11:02.147Z,12.20
2023-04-13T11:13:31.342Z,12.40
2023-04-13T11:16:03.554Z,12.70
2023-04-13T11:18:30.417Z,13.10
2023-04-13T11:20:58.293Z,13.20
2023-04-13T11:23:33.880Z,13.50
2023-04-13T11:26:01.355Z,13.60
2023-04-13T11:28:42.955Z,13.30
2023-04-13T11:31:17.717Z,13.30
2023-04-13T11:33:50.822Z,13.30
2023-04-13T11:36:22.907Z,13.30
2023-04-13T11:38:54.627Z,13.10
2023-04-13T11:41:21.504Z,12.90
2023-04-13T11:43:50.684Z,12.50
2023-04-13T11:46:26.304Z,12.20
2023-04-13T11:48:55.335Z,12.00
2023-04-13T11:51:23.245Z,11.90
2023-04-13T11:53:53.207Z,11.80
2023-04-13T11:56:25.124Z,11.50
2023-04-13T11:58:54.183Z,11.50
2023-04-13T12:01:26.401Z,11.40
2023-04-13T12:04:12.928Z,11.40
2023-04-13T12:06:48.001Z,11.50
2023-04-13T12:09:20.630Z,11.50
2023-04-13T12:12:12.048Z,11.70
2023-04-13T12:14:54.574Z,12.40
2023-04-13T12:20:05.015Z,13.40
2023-04-13T12:25:20.533Z,13.60
2023-04-13T12:27:53.195Z,13.60
2023-04-13T12:30:21.592Z,13.70
2023-04-13T12:32:52.549Z,13.70
2023-04-13T12:35:19.996Z,13.70
2023-04-13T12:37:50.464Z,13.70
2023-04-13T12:40:20.252Z,13.50
2023-04-13T12:42:49.355Z,13.90
2023-04-13T12:45:18.459Z,14.50
2023-04-13T12:47:45.455Z,14.80
2023-04-13T12:50:12.465Z,14.70
2023-04-13T12:52:42.092Z,14.50
2023-04-13T12:55:11.147Z,14.90
2023-04-13T12:57:41.660Z,15.30
2023-04-13T13:00:11.312Z,15.40
2023-04-13T13:02:39.268Z,15.10
2023-04-13T13:05:11.230Z,14.30
2023-04-13T13:07:39.246Z,13.80
2023-04-13T13:10:22.101Z,13.50
2023-04-13T13:12:56.409Z,13.20
2023-04-13T13:15:27.556Z,12.80
2023-04-13T13:17:56.473Z,12.80
2023-04-13T13:20:23.453Z,12.70
2023-04-13T13:22:52.620Z,13.00
2023-04-13T13:25:24.133Z,13.40
2023-04-13T13:30:20.689Z,14.20
2023-04-13T13:32:47.479Z,14.20
2023-04-13T13:35:18.974Z,14.10
2023-04-13T13:37:50.025Z,13.90
2023-04-13T13:40:21.702Z,13.70
2023-04-13T13:42:53.198Z,13.50
2023-04-13T13:45:21.151Z,13.20
2023-04-13T13:47:53.705Z,13.00
2023-04-13T13:50:27.510Z,12.80
2023-04-13T13:53:03.122Z,12.70
2023-04-13T13:55:33.500Z,12.60
2023-04-13T13:58:12.707Z,12.40
2023-04-13T14:00:42.291Z,12.10
2023-04-13T14:03:09.127Z,11.80
2023-04-13T14:06:30.380Z,11.70
2023-04-13T14:09:02.446Z,11.90
2023-04-13T14:11:29.283Z,12.10
2023-04-13T14:13:56.287Z,12.50
2023-04-13T14:16:23.148Z,12.90
2023-04-13T14:18:53.129Z,13.30
2023-04-13T14:21:22.345Z,13.60
2023-04-13T14:23:55.501Z,13.70
2023-04-13T14:26:24.404Z,13.90
2023-04-13T14:28:53.450Z,13.90
2023-04-13T14:31:20.425Z,13.80
2023-04-13T14:33:52.006Z,13.60
2023-04-13T14:36:21.113Z,13.70
2023-04-13T14:38:47.966Z,13.50
2023-04-13T14:41:14.779Z,13.30
2023-04-13T14:43:41.348Z,13.30
2023-04-13T14:46:34.519Z,13.60
2023-04-13T14:49:07.237Z,13.70
2023-04-13T14:51:36.625Z,13.70
2023-04-13T14:54:06.986Z,13.70
2023-04-13T14:56:36.061Z,13.70
2023-04-13T14:59:08.440Z,13.70
2023-04-13T15:01:35.442Z,13.70
2023-04-13T15:04:03.552Z,13.70
2023-04-13T15:06:35.296Z,13.80
2023-04-13T15:09:04.577Z,13.70
2023-04-13T15:11:31.471Z,13.80
2023-04-13T15:14:00.943Z,13.70
2023-04-13T15:16:30.350Z,13.90
2023-04-13T15:18:58.817Z,13.90
2023-04-13T15:21:26.913Z,13.80
2023-04-13T15:23:53.681Z,13.90
2023-04-13T15:26:22.930Z,14.00
2023-04-13T15:28:49.662Z,14.10
2023-04-13T15:31:16.366Z,14.20
2023-04-13T15:33:43.663Z,14.10
2023-04-13T15:36:15.495Z,14.10
2023-04-13T15:38:42.545Z,14.10
2023-04-13T15:41:11.876Z,14.10
2023-04-13T15:43:43.308Z,14.10
2023-04-13T15:46:12.519Z,14.10
2023-04-13T15:48:45.982Z,14.10
2023-04-13T15:51:14.087Z,14.00
2023-04-13T15:53:40.781Z,14.00
2023-04-13T15:56:08.406Z,13.90
2023-04-13T15:58:38.661Z,13.90
2023-04-13T16:01:10.329Z,13.80
2023-04-13T16:03:43.026Z,13.80
2023-04-13T16:06:11.142Z,13.70
2023-04-13T16:08:40.853Z,13.60
2023-04-13T16:11:07.718Z,13.50
2023-04-13T16:13:48.025Z,13.40
2023-04-13T16:16:22.964Z,13.20
2023-04-13T16:18:50.058Z,13.10
2023-04-13T16:21:18.755Z,13.10
2023-04-13T16:23:45.859Z,13.10
2023-04-13T16:26:18.306Z,13.10
2023-04-13T16:28:48.090Z,12.90
2023-04-13T16:31:17.227Z,12.90
2023-04-13T16:33:43.891Z,12.70
2023-04-13T16:36:10.871Z,12.60
2023-04-13T16:38:40.961Z,12.50
2023-04-13T16:41:11.654Z,12.40
2023-04-13T16:43:40.840Z,12.40
2023-04-13T16:46:07.662Z,12.30
2023-04-13T16:48:36.905Z,12.20
2023-04-13T16:51:06.433Z,12.10
2023-04-13T16:53:43.410Z,12.00
2023-04-13T16:56:21.274Z,11.90
2023-04-13T16:58:48.421Z,11.80
2023-04-13T17:01:19.036Z,11.70
2023-04-13T17:03:52.798Z,11.60
2023-04-13T17:06:22.710Z,11.40
2023-04-13T17:08:52.717Z,11.30
2023-04-13T17:11:19.591Z,11.10
2023-04-13T17:13:46.669Z,11.10
2023-04-13T17:16:13.658Z,11.10
2023-04-13T17:18:41.253Z,11.00
2023-04-13T17:21:07.934Z,11.00
2023-04-13T17:23:40.342Z,10.90
2023-04-13T17:26:09.392Z,10.90
2023-04-13T17:28:37.364Z,10.90
2023-04-13T17:31:04.835Z,10.90
2023-04-13T17:33:32.211Z,10.80
2023-04-13T17:36:01.518Z,10.80
2023-04-13T17:38:28.278Z,10.80
2023-04-13T17:40:55.387Z,10.80
2023-04-13T17:43:22.683Z,10.70
2023-04-13T17:45:49.447Z,10.70
2023-04-13T17:48:16.083Z,10.70
2023-04-13T17:53:38.684Z,10.70
2023-04-13T17:56:16.804Z,10.80
2023-04-13T17:58:44.175Z,10.70
2023-04-13T18:01:11.271Z,10.70
2023-04-13T18:03:38.584Z,10.60
2023-04-13T18:06:05.881Z,10.60
2023-04-13T18:08:35.930Z,10.50
2023-04-13T18:11:02.609Z,10.50
2023-04-13T18:13:30.688Z,10.50
2023-04-13T18:15:57.813Z,10.50
2023-04-13T18:18:27.002Z,10.50
2023-04-13T18:20:54.047Z,10.50
2023-04-13T18:23:23.044Z,10.50
2023-04-13T18:25:50.584Z,10.50
2023-04-13T18:28:20.758Z,10.50
2023-04-13T18:31:13.729Z,10.50
2023-04-13T18:33:44.389Z,10.50
2023-04-13T18:36:17.811Z,10.50
2023-04-13T18:38:45.489Z,10.50
2023-04-13T18:41:15.658Z,10.50
2023-04-13T18:43:48.658Z,10.50
2023-04-13T18:46:15.679Z,10.40
2023-04-13T18:48:43.617Z,10.40
2023-04-13T18:51:11.584Z,10.30
2023-04-13T18:53:41.190Z,10.30
2023-04-13T18:56:12.518Z,10.20
2023-04-13T18:58:44.300Z,10.20
2023-04-13T19:01:18.562Z,10.20
2023-04-13T19:03:51.000Z,10.10
2023-04-13T19:06:18.140Z,10.10
2023-04-13T19:08:45.069Z,9.90
2023-04-13T19:11:47.399Z,9.80
2023-04-13T19:14:14.686Z,9.60
2023-04-13T19:16:44.885Z,9.50
2023-04-13T19:19:14.461Z,9.50
2023-04-13T19:21:43.469Z,9.40
2023-04-13T19:24:12.361Z,9.30
2023-04-13T19:26:40.110Z,9.10
2023-04-13T19:29:12.802Z,9.00
2023-04-13T19:31:42.517Z,8.90
2023-04-13T19:34:10.604Z,8.70
2023-04-13T19:36:39.116Z,8.60
2023-04-13T19:39:10.602Z,8.60
2023-04-13T19:41:40.785Z,8.60
2023-04-13T19:44:09.932Z,8.60
2023-04-13T19:46:39.130Z,8.70
2023-04-13T19:49:06.209Z,8.70
2023-04-13T19:51:35.410Z,8.70
2023-04-13T19:54:04.109Z,8.80
2023-04-13T19:56:41.509Z,8.80
2023-04-13T19:59:09.932Z,8.70
2023-04-13T20:01:37.073Z,8.60
2023-04-13T20:04:06.675Z,8.50
2023-04-13T20:06:35.286Z,8.50
2023-04-13T20:09:15.844Z,8.40
2023-04-13T20:11:43.979Z,8.30
2023-04-13T20:14:10.789Z,8.20
2023-04-13T20:16:37.705Z,8.20
2023-04-13T20:19:05.995Z,8.20
2023-04-13T20:21:35.705Z,8.00
2023-04-13T20:24:03.122Z,7.90
2023-04-13T20:26:31.212Z,7.80
2023-04-13T20:29:00.252Z,7.80
2023-04-13T20:31:35.316Z,7.70
2023-04-13T20:34:03.318Z,7.70
2023-04-13T20:36:30.886Z,7.70
2023-04-13T20:38:58.835Z,7.70
2023-04-13T20:41:34.101Z,7.60
2023-04-13T20:44:09.187Z,7.50
2023-04-13T20:46:41.186Z,7.40
2023-04-13T20:49:11.238Z,7.30
2023-04-13T20:51:40.612Z,7.20
2023-04-13T20:54:33.033Z,7.00
2023-04-13T20:57:00.678Z,7.00
2023-04-13T20:59:33.937Z,6.90
2023-04-13T21:02:00.637Z,6.80
2023-04-13T21:04:32.028Z,6.80
2023-04-13T21:07:01.446Z,6.70
2023-04-13T21:09:29.472Z,6.60
2023-04-13T21:11:56.998Z,6.50
2023-04-13T21:17:20.081Z,6.40
2023-04-13T21:19:55.160Z,6.40
2023-04-13T21:22:24.728Z,6.40
2023-04-13T21:24:51.528Z,6.50
2023-04-13T21:27:21.804Z,6.50
2023-04-13T21:30:00.413Z,6.50
2023-04-13T21:32:32.074Z,6.40
2023-04-13T21:35:24.192Z,6.30
2023-04-13T21:37:51.093Z,6.30
2023-04-13T21:40:17.912Z,6.30
2023-04-13T21:42:45.062Z,6.30
2023-04-13T21:45:11.741Z,6.20
2023-04-13T21:48:07.883Z,6.20
2023-04-13T21:50:35.172Z,6.10
2023-04-13T21:53:02.698Z,6.00
2023-04-13T21:55:29.426Z,5.90
2023-04-13T21:57:56.364Z,5.80
2023-04-13T22:00:24.697Z,5.90
2023-04-13T22:02:52.977Z,5.90
2023-04-13T22:05:22.394Z,5.90
2023-04-13T22:07:49.214Z,6.00
2023-04-13T22:10:18.221Z,6.00
2023-04-13T22:12:45.696Z,6.00
2023-04-13T22:15:14.534Z,6.10
2023-04-13T22:17:41.167Z,6.10
2023-04-13T22:20:08.414Z,6.00
2023-04-13T22:22:35.140Z,6.00
2023-04-13T22:25:05.101Z,5.90
2023-04-13T22:27:31.773Z,5.90
2023-04-13T22:30:02.650Z,5.80
2023-04-13T22:32:29.379Z,5.80
2023-04-13T22:35:00.553Z,5.60
2023-04-13T22:37:30.917Z,5.50
2023-04-13T22:40:01.730Z,5.40
2023-04-13T22:42:28.380Z,5.40
2023-04-13T22:44:56.694Z,5.40
2023-04-13T22:47:24.306Z,5.30
2023-04-13T22:49:50.982Z,5.30
2023-04-13T22:52:18.416Z,5.30
2023-04-13T22:54:46.010Z,5.20
2023-04-13T22:57:16.402Z,5.10
2023-04-13T22:59:43.379Z,5.00
2023-04-13T23:02:10.453Z,5.00
2023-04-13T23:04:37.750Z,5.00
2023-04-13T23:07:04.726Z,5.00
2023-04-13T23:09:37.673Z,5.00
2023-04-13T23:12:08.945Z,5.00
2023-04-13T23:14:40.166Z,5.00
2023-04-13T23:17:09.433Z,5.10
2023-04-13T23:19:40.332Z,5.10
2023-04-13T23:22:09.228Z,5.10
2023-04-13T23:24:39.190Z,5.20
2023-04-13T23:27:05.828Z,5.20
2023-04-13T23:29:35.841Z,5.30
2023-04-13T23:32:05.725Z,5.30
2023-04-13T23:34:33.480Z,5.30
2023-04-13T23:37:01.335Z,5.30
2023-04-13T23:39:28.050Z,5.40
2023-04-13T23:41:58.374Z,5.30
2023-04-13T23:44:25.655Z,5.30
2023-04-13T23:46:52.849Z,5.40
2023-04-13T23:49:19.604Z,5.40
2023-04-13T23:51:48.670Z,5.40
2023-04-13T23:54:15.527Z,5.40
2023-04-13T23:56:44.776Z,5.40
2023-04-13T23:59:11.744Z,5.40
